Time;durP1;ratioP1;P1;durP2;ratioP2;P2;SDS_P1;SDS_P2;PMS_P1;PMS_P2;Temp;Humidity;BMP_temperature;BMP_pressure;BME280_temperature;BME280_humidity;BME280_pressure;Samples;Min_cycle;Max_cycle;Signal;HPM_P1;HPM_P2
2022/09/27 04:10:11;;;;;;;162.90;46.05;;;;;;;10.57;100.00;99000.25;5556973;32;188457;-88
2022/09/27 04:13:16;;;;;;;146.90;44.28;;;;;;;10.55;100.00;99002.19;5543127;32;33870;-89
2022/09/27 04:16:19;;;;;;;198.48;45.67;;;;;;;10.55;100.00;99007.50;5543163;32;34633;-89
2022/09/27 04:19:23;;;;;;;108.97;40.88;;;;;;;10.56;100.00;99003.06;5544735;32;33955;-90
2022/09/27 04:22:27;;;;;;;97.90;38.88;;;;;;;10.59;100.00;99008.97;5549183;32;34533;-90
2022/09/27 04:25:34;;;;;;;105.03;36.38;;;;;;;10.67;100.00;99004.91;5558509;32;34058;-92
2022/09/27 04:28:38;;;;;;;108.97;39.65;;;;;;;10.73;100.00;98997.38;5566072;32;33757;-87
2022/09/27 04:31:43;;;;;;;165.75;39.63;;;;;;;10.78;100.00;98991.72;5566079;32;34369;-89
2022/09/27 04:38:07;;;;;;;247.60;40.55;;;;;;;10.74;100.00;98987.59;5548818;32;33286;-87
2022/09/27 04:41:10;;;;;;;160.88;37.53;;;;;;;10.77;100.00;98980.25;5562875;32;34190;-87
2022/09/27 04:44:13;;;;;;;198.07;40.03;;;;;;;10.89;100.00;98993.59;5562324;32;33773;-87
2022/09/27 04:47:17;;;;;;;170.90;39.35;;;;;;;10.78;100.00;98984.59;5562533;32;34783;-87
2022/09/27 04:50:20;;;;;;;219.20;39.78;;;;;;;10.84;100.00;98985.13;5563199;32;34206;-87
2022/09/27 04:53:33;;;;;;;170.23;37.97;;;;;;;10.85;100.00;98982.34;5563423;32;34576;-87
2022/09/27 04:56:36;;;;;;;100.45;38.50;;;;;;;10.80;100.00;98975.72;5570453;32;33764;-87
2022/09/27 04:59:41;;;;;;;61.08;34.15;;;;;;;10.76;100.00;98980.41;5566174;32;33802;-87
2022/09/27 05:02:47;;;;;;;112.70;35.28;;;;;;;10.84;100.00;98988.63;5563717;32;34834;-87
2022/09/27 05:05:51;;;;;;;99.53;34.97;;;;;;;10.81;100.00;98983.53;5562778;32;32837;-87
2022/09/27 05:08:54;;;;;;;89.25;35.13;;;;;;;10.81;100.00;98975.56;5562878;32;34506;-87
2022/09/27 05:11:57;;;;;;;71.03;33.45;;;;;;;10.89;100.00;98964.41;5563074;32;34625;-88
2022/09/27 05:15:02;;;;;;;60.20;32.92;;;;;;;10.95;100.00;98969.25;5563039;32;35199;-88
2022/09/27 05:18:07;;;;;;;98.57;35.55;;;;;;;11.01;100.00;98960.84;5569388;32;31671;-88
2022/09/27 05:21:14;;;;;;;65.82;34.90;;;;;;;11.09;100.00;98967.38;5551517;32;34240;-88
2022/09/27 05:24:17;;;;;;;65.62;33.40;;;;;;;11.16;100.00;98974.78;5549468;32;34156;-88
2022/09/27 05:27:20;;;;;;;82.80;35.55;;;;;;;11.24;100.00;98976.88;5550314;32;33661;-89
2022/09/27 05:30:26;;;;;;;61.88;32.30;;;;;;;11.31;100.00;98971.94;5550733;32;34617;-88
2022/09/27 05:33:30;;;;;;;106.07;35.97;;;;;;;11.35;100.00;98969.91;5552275;32;33840;-88
2022/09/27 05:36:37;;;;;;;129.48;35.88;;;;;;;11.26;100.00;98960.84;5550286;32;34185;-88
2022/09/27 05:39:41;;;;;;;80.47;37.53;;;;;;;11.31;100.00;98956.84;5553373;32;34497;-89
2022/09/27 05:42:43;;;;;;;92.85;36.60;;;;;;;11.33;100.00;98946.12;5547217;32;34503;-89
2022/09/27 05:45:46;;;;;;;64.70;35.63;;;;;;;11.19;100.00;98940.06;5533568;32;34747;-88
2022/09/27 05:48:49;;;;;;;68.53;35.90;;;;;;;11.30;100.00;98927.75;5546363;32;34170;-88
2022/09/27 05:51:52;;;;;;;63.55;34.85;;;;;;;11.31;100.00;98932.09;5529795;32;33326;-88
2022/09/27 05:54:55;;;;;;;84.15;33.83;;;;;;;11.28;100.00;98935.84;5548131;32;34028;-89
2022/09/27 05:58:04;;;;;;;78.95;34.90;;;;;;;11.38;100.00;98928.03;5519397;32;33791;-88
2022/09/27 06:01:08;;;;;;;100.97;32.47;;;;;;;11.27;100.00;98928.00;5541870;32;34690;-91
2022/09/27 06:04:16;;;;;;;58.30;33.53;;;;;;;11.34;100.00;98934.53;5544175;32;35348;-91
2022/09/27 06:07:24;;;;;;;56.70;30.55;;;;;;;11.33;100.00;98944.31;5535890;32;35264;-89
2022/09/27 06:10:33;;;;;;;45.90;28.58;;;;;;;11.38;100.00;98953.72;5546630;32;35131;-89
2022/09/27 06:21:15;;;;;;;47.45;27.98;;;;;;;11.50;100.00;98963.41;5593386;26;20139;-88
2022/09/27 06:24:19;;;;;;;49.35;28.17;;;;;;;11.64;100.00;98956.19;5574172;31;33838;-88
2022/09/27 06:27:21;;;;;;;84.62;28.55;;;;;;;11.57;100.00;98954.00;5582071;31;34327;-89
2022/09/27 06:30:28;;;;;;;46.22;28.38;;;;;;;11.53;100.00;98951.72;5573936;31;32684;-89
2022/09/27 06:33:32;;;;;;;59.10;28.08;;;;;;;11.48;100.00;98954.75;5555691;32;34558;-89
2022/09/27 06:36:35;;;;;;;89.68;30.52;;;;;;;11.68;100.00;98950.53;5566427;26;32931;-88
2022/09/27 06:39:38;;;;;;;70.35;30.20;;;;;;;11.61;100.00;98951.13;5550860;32;32353;-89
2022/09/27 06:42:42;;;;;;;88.43;31.62;;;;;;;11.58;100.00;98947.72;5556780;32;34530;-88
2022/09/27 06:45:45;;;;;;;51.58;29.10;;;;;;;11.68;100.00;98952.34;5578367;32;33901;-88
2022/09/27 06:48:55;;;;;;;60.65;33.10;;;;;;;11.69;100.00;98944.28;5564557;32;35267;-90
2022/09/27 06:52:05;;;;;;;47.65;27.80;;;;;;;11.73;100.00;98942.22;5567848;32;35297;-92
2022/09/27 06:55:08;;;;;;;46.63;27.50;;;;;;;11.85;100.00;98938.59;5564064;32;33921;-89
2022/09/27 07:01:35;;;;;;;42.30;26.60;;;;;;;11.92;100.00;98933.63;5557348;32;33631;-87
2022/09/27 08:28:05;;;;;;;22.87;18.65;;;;;;;16.48;100.00;98925.28;4921247;30;20083;-90
2022/09/27 08:31:08;;;;;;;25.35;19.35;;;;;;;16.06;100.00;98931.97;5513102;32;34824;-88
2022/09/27 08:57:14;;;;;;;22.65;17.33;;;;;;;15.06;100.00;98906.44;4934948;30;20148;-87
2022/09/27 09:00:17;;;;;;;21.95;17.42;;;;;;;15.09;100.00;98911.50;5599493;26;34687;-86
2022/09/27 09:03:24;;;;;;;22.95;17.95;;;;;;;15.35;100.00;98920.75;5556870;32;32962;-87
2022/09/27 09:06:58;;;;;;;24.55;19.80;;;;;;;15.88;100.00;98919.34;5446461;30;20805;-86
2022/09/27 09:13:56;;;;;;;25.83;19.80;;;;;;;15.55;100.00;98924.25;5510655;32;34540;-86
2022/09/27 09:17:39;;;;;;;25.55;18.12;;;;;;;15.26;100.00;98916.25;5518960;32;34718;-87
2022/09/27 09:20:54;;;;;;;27.90;18.73;;;;;;;15.55;100.00;98910.87;5524760;32;33420;-88
2022/09/27 09:24:31;;;;;;;24.27;17.50;;;;;;;15.54;100.00;98900.31;5516376;32;33839;-87
2022/09/27 09:28:06;;;;;;;20.73;16.42;;;;;;;15.44;100.00;98898.50;5527764;32;32526;-88
2022/09/27 09:31:27;;;;;;;22.80;17.12;;;;;;;15.35;100.00;98891.38;5529485;32;34267;-87
2022/09/27 09:34:39;;;;;;;21.75;16.85;;;;;;;15.75;100.00;98884.91;5531367;32;32429;-87
2022/09/27 09:37:52;;;;;;;22.60;17.40;;;;;;;15.96;100.00;98870.50;5530927;32;34330;-86
2022/09/27 09:41:15;;;;;;;20.85;16.90;;;;;;;15.86;100.00;98861.66;5535070;32;33895;-87
2022/09/27 09:44:34;;;;;;;22.70;16.62;;;;;;;15.95;100.00;98862.62;5518417;32;33808;-87
2022/09/27 09:47:53;;;;;;;24.33;17.62;;;;;;;15.98;100.00;98859.63;5535534;32;34222;-87
2022/09/27 09:51:00;;;;;;;22.23;17.60;;;;;;;15.63;100.00;98870.88;5513695;32;34494;-87
2022/09/27 09:54:28;;;;;;;22.37;17.90;;;;;;;15.34;100.00;98869.12;5532890;32;34228;-87
2022/09/27 09:57:50;;;;;;;19.37;15.73;;;;;;;15.24;100.00;98870.97;5546063;31;34637;-88
2022/09/27 10:00:59;;;;;;;23.17;17.42;;;;;;;15.34;100.00;98862.97;5538076;32;34377;-88
2022/09/27 10:04:19;;;;;;;23.38;17.50;;;;;;;14.76;100.00;98862.03;5524036;32;33035;-88
2022/09/27 10:07:23;;;;;;;22.77;18.08;;;;;;;14.82;100.00;98859.66;5531710;32;34043;-88
2022/09/27 10:10:27;;;;;;;27.10;18.67;;;;;;;14.53;100.00;98849.78;5535779;32;34107;-88
2022/09/27 10:13:34;;;;;;;23.90;17.90;;;;;;;14.47;100.00;98850.34;5540704;32;34050;-88
2022/09/27 10:16:41;;;;;;;22.02;17.90;;;;;;;14.24;100.00;98850.59;5553196;26;33726;-88
2022/09/27 10:19:51;;;;;;;26.17;19.90;;;;;;;14.07;100.00;98848.59;5522433;32;33907;-88
2022/09/27 10:22:59;;;;;;;23.00;17.98;;;;;;;13.85;100.00;98851.34;5533510;32;35871;-88
2022/09/27 10:26:07;;;;;;;26.17;19.15;;;;;;;14.02;100.00;98847.19;5512129;32;32422;-88
2022/09/27 10:29:28;;;;;;;24.45;17.98;;;;;;;13.91;100.00;98838.44;5510010;32;34377;-88
2022/09/27 10:32:37;;;;;;;25.62;18.75;;;;;;;13.90;100.00;98837.59;5505449;32;32369;-89
2022/09/27 10:35:44;;;;;;;26.40;18.45;;;;;;;14.00;100.00;98832.31;5506372;32;32635;-88
2022/09/27 10:38:53;;;;;;;25.60;19.12;;;;;;;14.04;100.00;98839.06;5517390;32;33990;-88
2022/09/27 10:41:57;;;;;;;29.65;19.95;;;;;;;14.06;100.00;98838.91;5513115;32;32439;-88
2022/09/27 12:09:10;;;;;;;21.15;15.45;;;;;;;15.31;100.00;98735.00;5491724;30;20081;-88
2022/09/27 12:12:30;;;;;;;20.92;16.05;;;;;;;15.30;100.00;98730.66;5526901;32;34831;-87
2022/09/27 12:15:38;;;;;;;20.35;15.45;;;;;;;15.30;100.00;98728.00;5530944;32;33788;-87
2022/09/27 12:18:43;;;;;;;22.35;16.33;;;;;;;15.32;100.00;98712.66;5526554;32;34410;-87
2022/09/27 12:22:00;;;;;;;22.87;16.45;;;;;;;15.38;100.00;98709.38;5500601;32;33029;-87
2022/09/27 12:25:04;;;;;;;21.60;16.70;;;;;;;15.54;100.00;98710.59;5506287;32;34059;-87
2022/09/27 12:28:35;;;;;;;24.65;16.77;;;;;;;15.58;100.00;98711.94;5522775;32;34312;-87
2022/09/27 12:32:04;;;;;;;24.15;16.67;;;;;;;15.55;100.00;98717.59;5566251;26;33520;-89
2022/09/27 12:35:27;;;;;;;26.58;16.27;;;;;;;15.75;100.00;98699.63;5506769;32;32683;-88
2022/09/27 12:39:00;;;;;;;21.25;16.45;;;;;;;15.74;100.00;98695.28;5523520;32;34861;-87
2022/09/27 12:46:21;;;;;;;23.83;14.68;;;;;;;15.94;100.00;98701.34;3260004;30;20111;-89
2022/09/27 12:49:51;;;;;;;18.08;13.77;;;;;;;15.77;100.00;98690.47;5523594;32;32422;-89
2022/09/27 12:53:03;;;;;;;20.75;14.93;;;;;;;15.81;100.00;98685.66;5489042;27;33078;-89
2022/09/27 12:56:12;;;;;;;20.17;15.63;;;;;;;15.66;100.00;98682.66;5528645;32;33713;-89
2022/09/27 12:59:40;;;;;;;20.73;15.20;;;;;;;15.35;100.00;98681.13;5516866;32;34494;-89
2022/09/27 13:10:34;;;;;;;24.08;16.15;;;;;;;15.50;100.00;98686.00;843678;30;21057;-91
2022/09/27 13:13:39;;;;;;;23.45;16.15;;;;;;;15.86;100.00;98678.03;5602426;26;33487;-89
2022/09/27 13:16:44;;;;;;;20.62;15.18;;;;;;;15.76;100.00;98670.03;5593425;26;35338;-89
2022/09/27 13:19:47;;;;;;;25.00;15.93;;;;;;;15.88;100.00;98668.00;5536854;32;34470;-88
2022/09/27 13:22:50;;;;;;;21.83;16.45;;;;;;;15.71;100.00;98663.50;5543552;32;34327;-89
2022/09/27 13:25:56;;;;;;;19.70;15.57;;;;;;;15.75;100.00;98665.69;5553250;32;32864;-89
2022/09/27 13:29:02;;;;;;;21.67;15.35;;;;;;;15.89;100.00;98666.16;5555323;32;35092;-89
2022/09/27 13:32:19;;;;;;;19.58;15.25;;;;;;;15.98;100.00;98667.09;5549176;32;34092;-88
2022/09/27 13:35:25;;;;;;;19.87;14.95;;;;;;;16.09;100.00;98664.19;5545374;32;33871;-92
2022/09/27 13:38:30;;;;;;;21.15;15.52;;;;;;;16.14;100.00;98656.56;5530071;32;35238;-92
2022/09/27 13:41:45;;;;;;;23.23;16.35;;;;;;;16.34;100.00;98656.38;5529567;32;34232;-88
2022/09/27 13:44:53;;;;;;;20.75;16.08;;;;;;;16.19;100.00;98652.59;5534597;32;33622;-88
2022/09/27 13:47:57;;;;;;;21.17;15.68;;;;;;;16.17;100.00;98650.06;5525387;32;33213;-86
2022/09/27 13:51:12;;;;;;;20.48;15.35;;;;;;;16.16;100.00;98651.06;5541775;32;33801;-88
2022/09/27 13:54:33;;;;;;;23.08;17.37;;;;;;;16.18;100.00;98638.34;5541088;32;33900;-89
2022/09/27 13:57:47;;;;;;;19.35;16.25;;;;;;;16.14;100.00;98632.47;5534680;32;34416;-89
2022/09/27 14:00:54;;;;;;;24.10;16.15;;;;;;;15.99;100.00;98632.19;5548538;32;34745;-89
2022/09/27 14:04:16;;;;;;;21.08;16.52;;;;;;;15.90;100.00;98633.09;5548618;32;33637;-89
2022/09/27 14:07:41;;;;;;;21.10;16.30;;;;;;;15.88;100.00;98627.91;5515286;32;32759;-89
2022/09/27 14:10:45;;;;;;;21.73;17.12;;;;;;;15.79;100.00;98634.16;5530940;32;34634;-89
2022/09/27 14:13:49;;;;;;;22.23;16.50;;;;;;;15.81;100.00;98648.22;5536045;32;33921;-88
2022/09/27 14:16:53;;;;;;;12.13;6.65;;;;;;;15.53;100.00;98658.97;5542195;32;33836;-87
2022/09/27 14:19:56;;;;;;;12.98;5.57;;;;;;;15.07;100.00;98689.16;5531270;32;34105;-88
2022/09/27 14:23:01;;;;;;;10.30;4.78;;;;;;;14.00;100.00;98705.19;5530963;32;33919;-88
2022/09/27 14:26:04;;;;;;;5.47;3.92;;;;;;;13.31;100.00;98702.38;5543297;32;33725;-88
2022/09/27 14:29:20;;;;;;;4.53;3.20;;;;;;;12.88;100.00;98717.59;5545656;32;34415;-88
2022/09/27 14:32:25;;;;;;;3.97;2.50;;;;;;;12.54;100.00;98731.13;5535309;32;34371;-89
2022/09/27 14:38:52;;;;;;;2.10;1.77;;;;;;;12.58;100.00;98711.25;5550208;32;34282;-88
2022/09/27 14:41:55;;;;;;;3.17;1.73;;;;;;;12.43;100.00;98718.72;5549830;32;34517;-88
2022/09/27 14:45:03;;;;;;;1.80;1.70;;;;;;;12.39;100.00;98718.13;5549358;32;34119;-88
2022/09/27 14:48:21;;;;;;;2.90;2.15;;;;;;;12.43;100.00;98723.19;5517346;32;33834;-88
2022/09/27 14:51:30;;;;;;;4.20;2.40;;;;;;;12.32;100.00;98727.59;5533231;32;34678;-88
2022/09/27 14:54:33;;;;;;;2.08;1.75;;;;;;;12.48;100.00;98721.81;5550182;32;34401;-87
2022/09/27 14:57:36;;;;;;;3.00;2.30;;;;;;;12.48;100.00;98723.66;5533797;32;33978;-89
2022/09/27 15:00:46;;;;;;;3.80;2.17;;;;;;;12.43;100.00;98728.50;5534310;32;33145;-89
2022/09/27 15:03:49;;;;;;;4.20;2.55;;;;;;;12.58;100.00;98731.69;5538541;32;34085;-89
2022/09/27 15:06:54;;;;;;;2.92;2.37;;;;;;;12.41;100.00;98731.28;5524128;32;32654;-88
2022/09/27 15:09:57;;;;;;;4.03;2.50;;;;;;;12.63;100.00;98740.97;5529892;32;34650;-89
2022/09/27 15:13:03;;;;;;;2.78;2.55;;;;;;;12.67;100.00;98726.44;5542735;32;35147;-88
2022/09/27 15:16:18;;;;;;;2.00;1.80;;;;;;;12.64;100.00;98734.69;5548660;32;34349;-88
2022/09/27 15:19:27;;;;;;;2.30;2.05;;;;;;;12.54;100.00;98736.44;5548242;32;34856;-88
